CheckWX is a tool to help pilots better visualize weather data.  It is not intended as a substitute for an official pre-flight weather briefing.

00:51:53 UTC

KBKV METAR
Brooksville-Tampa Bay Regional Airport
Brooksville, Florida, USA
Current

59 mins ago

KBKV 232353Z 29004KT 10SM CLR 19/06 A3019 RMK AO2 SLP223 T01890056 10278 20189 53012
Observed
Mar-23 @ 23:53 UTC
Wind
  • 290° at 4 KTS
Visibility
10 SM
Flight Rules
VFR
Cloud Levels
  • Clear skies
Temperature
19°C / 66°F
Dewpoint
C / 43°F
Humidity
43%
Altimeter
30.19" Hg
Pressure
1022.3 hPa
Previous

2 hours ago

KBKV 232253Z 28008KT 10SM CLR 23/08 A3018 RMK AO2 SLP219 T02280083
Observed
Mar-23 @ 22:53 UTC
Wind
  • 280° at 8 KTS
Visibility
10 SM
Flight Rules
VFR
Cloud Levels
  • Clear skies
Temperature
23°C / 73°F
Dewpoint
C / 46°F
Humidity
38%
Altimeter
30.18" Hg
Pressure
1021.9 hPa
Previous

3 hours ago

KBKV 232153Z 08004KT 10SM CLR 27/03 A3016 RMK AO2 SLP211 T02670033
Observed
Mar-23 @ 21:53 UTC
Wind
  • 080° at 4 KTS
Visibility
10 SM
Flight Rules
VFR
Cloud Levels
  • Clear skies
Temperature
27°C / 81°F
Dewpoint
C / 37°F
Humidity
21%
Altimeter
30.16" Hg
Pressure
1021.1 hPa